Kezdőlap
METAR-TAF:

METAR-TAF

Repülőterek :

Aktau, Kazahsztán

földrajzi szélesség: 43-52-12N, földrajzi hosszúság: 051-06E, magasság: 22 m

Jelenlegi meteorológiai megfigyelések

A jelentés 45 perccel ezelõtt készült, 12:30 UTC
Keleti szél 14 kt
Hőmérséklet 11°C
Páratartalom 32%
Légköri nyomás 1025 hPa
Látótávolság 10 km, vagy több
felhőtlen 1500 m magasságban, és nincs gomolyfelhõ

METAR: UATE 231230Z 08007MPS CAVOK 11/M05 Q1025 R12/0///70 NOSIG RMK QFE766/1022

Idő: 18:15 (13:15 UTC)

Előrejelzés

A jelentés 2 órával és 2 perccel ezelõtt készült, 11:13 UTC
Az előrejelzés 23-én 12 óra UTC és 24-én 12 óra UTC között érvényes
Keleti szél 14 kt
Látótávolság 10 km, vagy több
Szórványos felhőzet 3300 lábon

TAF: UATE 231113Z 2312/2412 08007MPS 9999 SCT033 TX09/2410Z TNM02/2402Z

Meteorológiai megfigyelések és előrejelzések több, mint 4000 repülőtéren (METAR és TAF jelentéseket).

A térképen piros és sárga pontok jelzik az elérhető meteorológiai állomásokat.

Mozgassa az egeret a pont fölött, hogy megjelenjen az állomás neve.

Azután kattintson az időjárási megfigyelések és előrejelzések megtekintéséhez.

A térkép megváltoztatása: kattintson a fekete keresztel jelölt zöld gombra ráközelítéshez, a vonallal jelölt zöld gombra távolításhoz, vagy a zöld nyilakra a szomszédos térképek eléréséhez.


METAR-TAF: